createdAt,value
2023-05-14T00:00:02.908Z,11.10
2023-05-14T00:02:30.032Z,11.00
2023-05-14T00:04:56.793Z,11.00
2023-05-14T00:07:23.831Z,11.00
2023-05-14T00:09:50.687Z,11.10
2023-05-14T00:12:17.404Z,11.20
2023-05-14T00:14:44.267Z,11.10
2023-05-14T00:17:11.034Z,11.20
2023-05-14T00:19:41.802Z,11.20
2023-05-14T00:22:08.531Z,11.20
2023-05-14T00:24:35.184Z,11.20
2023-05-14T00:27:01.931Z,11.10
2023-05-14T00:29:28.747Z,11.00
2023-05-14T00:31:55.949Z,11.00
2023-05-14T00:34:22.931Z,11.00
2023-05-14T00:36:49.983Z,11.00
2023-05-14T00:39:16.735Z,11.00
2023-05-14T00:41:43.543Z,10.90
2023-05-14T00:44:10.276Z,10.90
2023-05-14T00:46:37.089Z,10.90
2023-05-14T00:49:03.766Z,10.90
2023-05-14T00:51:30.610Z,10.90
2023-05-14T00:53:57.358Z,10.90
2023-05-14T00:56:24.932Z,10.90
2023-05-14T00:58:51.638Z,10.90
2023-05-14T01:01:18.518Z,10.80
2023-05-14T01:03:45.336Z,10.80
2023-05-14T01:06:12.243Z,10.90
2023-05-14T01:08:38.961Z,10.90
2023-05-14T01:11:05.757Z,10.80
2023-05-14T01:13:32.454Z,10.80
2023-05-14T01:15:59.196Z,10.80
2023-05-14T01:18:26.021Z,10.70
2023-05-14T01:20:52.889Z,10.70
2023-05-14T01:23:19.628Z,10.70
2023-05-14T01:25:46.455Z,10.60
2023-05-14T01:28:13.130Z,10.60
2023-05-14T01:30:39.999Z,10.60
2023-05-14T01:33:06.886Z,10.50
2023-05-14T01:35:33.822Z,10.50
2023-05-14T01:38:00.738Z,10.50
2023-05-14T01:40:27.524Z,10.50
2023-05-14T01:42:54.523Z,10.60
2023-05-14T01:45:21.415Z,10.60
2023-05-14T01:47:48.442Z,10.70
2023-05-14T01:50:16.011Z,10.60
2023-05-14T01:52:42.773Z,10.60
2023-05-14T01:55:09.642Z,10.60
2023-05-14T01:57:36.474Z,10.70
2023-05-14T02:00:04.266Z,10.60
2023-05-14T02:02:40.724Z,10.60
2023-05-14T02:05:09.316Z,10.60
2023-05-14T02:07:36.014Z,10.60
2023-05-14T02:10:02.761Z,10.60
2023-05-14T02:12:29.894Z,10.60
2023-05-14T02:14:56.606Z,10.60
2023-05-14T02:17:23.409Z,10.60
2023-05-14T02:19:50.251Z,10.60
2023-05-14T02:22:17.032Z,10.60
2023-05-14T02:24:43.814Z,10.50
2023-05-14T02:27:12.791Z,10.40
2023-05-14T02:29:39.634Z,10.40
2023-05-14T02:32:06.385Z,10.40
2023-05-14T02:34:34.487Z,10.30
2023-05-14T02:37:01.320Z,10.40
2023-05-14T02:39:28.142Z,10.40
2023-05-14T02:41:54.852Z,10.40
2023-05-14T02:44:21.608Z,10.30
2023-05-14T02:46:48.348Z,10.40
2023-05-14T02:49:15.184Z,10.40
2023-05-14T02:51:43.326Z,10.40
2023-05-14T02:54:15.532Z,10.40
2023-05-14T02:56:42.712Z,10.40
2023-05-14T02:59:09.581Z,10.30
2023-05-14T03:01:46.472Z,10.30
2023-05-14T03:04:14.116Z,10.30
2023-05-14T03:06:43.624Z,10.20
2023-05-14T03:09:11.155Z,10.20
2023-05-14T03:11:51.757Z,10.20
2023-05-14T03:14:18.965Z,10.20
2023-05-14T03:16:46.832Z,10.30
2023-05-14T03:19:17.131Z,10.30
2023-05-14T03:21:45.076Z,10.30
2023-05-14T03:24:11.832Z,10.30
2023-05-14T03:26:38.621Z,10.20
2023-05-14T03:29:05.328Z,10.20
2023-05-14T03:31:32.138Z,10.20
2023-05-14T03:34:00.188Z,10.20
2023-05-14T03:36:26.937Z,10.20
2023-05-14T03:38:53.628Z,10.20
2023-05-14T03:41:21.912Z,10.10
2023-05-14T03:43:48.705Z,10.10
2023-05-14T03:46:15.521Z,10.10
2023-05-14T03:48:42.680Z,10.10
2023-05-14T03:51:09.744Z,10.10
2023-05-14T03:53:36.692Z,10.20
2023-05-14T03:56:03.490Z,10.20
2023-05-14T03:58:30.355Z,10.20
2023-05-14T04:00:57.115Z,10.20
2023-05-14T04:03:24.038Z,10.20
2023-05-14T04:05:50.864Z,10.20
2023-05-14T04:08:17.638Z,10.30
2023-05-14T04:10:44.495Z,10.30
2023-05-14T04:13:11.168Z,10.30
2023-05-14T04:15:40.025Z,10.30
2023-05-14T04:18:07.603Z,10.40
2023-05-14T04:20:34.405Z,10.40
2023-05-14T04:23:01.104Z,10.40
2023-05-14T04:25:27.800Z,10.30
2023-05-14T04:27:54.483Z,10.30
2023-05-14T04:30:21.300Z,10.30
2023-05-14T04:32:48.174Z,10.30
2023-05-14T04:35:14.983Z,10.20
2023-05-14T04:37:41.729Z,10.20
2023-05-14T04:40:08.501Z,10.10
2023-05-14T04:42:35.352Z,10.10
2023-05-14T04:45:02.107Z,10.00
2023-05-14T04:47:28.927Z,10.10
2023-05-14T04:49:55.742Z,10.10
2023-05-14T04:52:22.467Z,10.10
2023-05-14T04:54:49.250Z,10.10
2023-05-14T04:57:16.005Z,10.00
2023-05-14T04:59:42.737Z,10.10
2023-05-14T05:02:09.498Z,10.00
2023-05-14T05:04:36.666Z,10.00
2023-05-14T05:07:03.545Z,10.00
2023-05-14T05:09:30.329Z,10.10
2023-05-14T05:11:57.085Z,10.10
2023-05-14T05:14:23.837Z,9.90
2023-05-14T05:16:50.530Z,9.90
2023-05-14T05:19:17.287Z,9.90
2023-05-14T05:21:44.201Z,9.90
2023-05-14T05:24:10.998Z,10.00
2023-05-14T05:26:37.704Z,10.00
2023-05-14T05:29:04.582Z,10.00
2023-05-14T05:31:31.456Z,10.00
2023-05-14T05:33:58.217Z,10.00
2023-05-14T05:36:24.895Z,9.90
2023-05-14T05:38:51.588Z,9.90
2023-05-14T05:41:18.271Z,9.80
2023-05-14T05:43:45.023Z,9.70
2023-05-14T05:46:11.778Z,9.80
2023-05-14T05:48:38.531Z,9.80
2023-05-14T05:51:05.233Z,9.90
2023-05-14T05:53:31.948Z,9.90
2023-05-14T05:55:58.638Z,9.90
2023-05-14T05:58:25.379Z,9.80
2023-05-14T06:00:52.141Z,9.90
2023-05-14T06:03:18.961Z,9.90
2023-05-14T06:05:46.874Z,9.90
2023-05-14T06:08:13.740Z,9.90
2023-05-14T06:10:40.440Z,10.00
2023-05-14T06:13:07.176Z,10.00
2023-05-14T06:15:33.851Z,10.00
2023-05-14T06:18:00.746Z,10.10
2023-05-14T06:20:27.454Z,10.20
2023-05-14T06:22:54.216Z,10.20
2023-05-14T06:25:20.911Z,10.10
2023-05-14T06:27:47.610Z,10.10
2023-05-14T06:30:14.962Z,10.10
2023-05-14T06:32:41.724Z,10.10
2023-05-14T06:35:08.429Z,10.10
2023-05-14T06:37:35.166Z,10.10
2023-05-14T06:40:01.889Z,10.20
2023-05-14T06:42:28.603Z,10.30
2023-05-14T06:44:56.026Z,10.40
2023-05-14T06:47:22.818Z,10.40
2023-05-14T06:49:49.516Z,10.40
2023-05-14T06:52:16.269Z,10.50
2023-05-14T06:54:42.941Z,10.60
2023-05-14T06:57:09.738Z,10.70
2023-05-14T06:59:36.442Z,10.60
2023-05-14T07:02:03.294Z,10.50
2023-05-14T07:04:30.101Z,10.60
2023-05-14T07:06:56.859Z,10.60
2023-05-14T07:09:23.532Z,10.60
2023-05-14T07:11:50.320Z,10.70
2023-05-14T07:14:17.041Z,10.80
2023-05-14T07:16:45.814Z,10.80
2023-05-14T07:19:12.612Z,10.90
2023-05-14T07:21:39.443Z,10.90
2023-05-14T07:24:06.163Z,10.90
2023-05-14T07:26:32.898Z,11.00
2023-05-14T07:28:59.590Z,11.00
2023-05-14T07:31:26.399Z,11.00
2023-05-14T07:33:53.108Z,11.10
2023-05-14T07:36:19.818Z,11.20
2023-05-14T07:38:46.502Z,11.20
2023-05-14T07:41:13.281Z,11.20
2023-05-14T07:43:40.635Z,11.20
2023-05-14T07:46:07.444Z,11.20
2023-05-14T07:48:34.202Z,11.20
2023-05-14T07:51:01.151Z,11.30
2023-05-14T07:53:27.838Z,11.40
2023-05-14T07:55:54.787Z,11.60
2023-05-14T07:58:21.599Z,11.70
2023-05-14T08:00:48.339Z,11.80
2023-05-14T08:03:15.106Z,11.90
2023-05-14T08:05:42.027Z,12.00
2023-05-14T08:08:08.739Z,12.20
2023-05-14T08:10:35.538Z,12.30
2023-05-14T08:13:02.389Z,12.40
2023-05-14T08:15:29.123Z,12.40
2023-05-14T08:17:56.101Z,12.40
2023-05-14T08:20:23.094Z,12.30
2023-05-14T08:22:49.966Z,12.30
2023-05-14T08:25:16.804Z,12.40
2023-05-14T08:27:43.454Z,12.50
2023-05-14T08:30:10.178Z,12.70
2023-05-14T08:32:38.682Z,12.90
2023-05-14T08:35:05.672Z,12.90
2023-05-14T08:37:32.492Z,13.00
2023-05-14T08:39:59.371Z,13.10
2023-05-14T08:42:26.206Z,13.20
2023-05-14T08:44:53.024Z,13.20
2023-05-14T08:47:19.717Z,13.30
2023-05-14T08:49:46.454Z,13.50
2023-05-14T08:52:13.217Z,13.60
2023-05-14T08:54:40.123Z,13.60
2023-05-14T08:57:06.790Z,13.70
2023-05-14T08:59:33.525Z,13.40
2023-05-14T09:02:00.333Z,13.30
2023-05-14T09:04:27.103Z,13.20
2023-05-14T09:06:53.764Z,13.20
2023-05-14T09:09:23.251Z,13.10
2023-05-14T09:11:49.957Z,13.10
2023-05-14T09:14:16.720Z,13.20
2023-05-14T09:16:43.513Z,13.10
2023-05-14T09:19:10.428Z,13.20
2023-05-14T09:21:37.200Z,13.30
2023-05-14T09:24:04.052Z,13.40
2023-05-14T09:26:30.725Z,13.40
2023-05-14T09:28:57.501Z,13.40
2023-05-14T09:31:24.266Z,13.40
2023-05-14T09:33:51.071Z,13.20
2023-05-14T09:36:17.782Z,13.30
2023-05-14T09:38:44.504Z,13.30
2023-05-14T09:41:11.167Z,13.30
2023-05-14T09:43:37.945Z,13.30
2023-05-14T09:46:04.621Z,13.40
2023-05-14T09:48:31.448Z,13.40
2023-05-14T09:50:58.269Z,13.40
2023-05-14T09:53:25.047Z,13.50
2023-05-14T09:55:51.752Z,13.60
2023-05-14T09:58:18.501Z,13.70
2023-05-14T10:00:45.378Z,13.90
2023-05-14T10:03:12.154Z,14.00
2023-05-14T10:05:38.851Z,14.10
2023-05-14T10:08:05.663Z,14.00
2023-05-14T10:10:32.350Z,14.00
2023-05-14T10:12:59.100Z,14.00
2023-05-14T10:15:25.829Z,14.10
2023-05-14T10:17:52.626Z,14.10
2023-05-14T10:20:19.428Z,14.20
2023-05-14T10:22:46.314Z,14.30
2023-05-14T10:25:13.059Z,14.40
2023-05-14T10:27:39.783Z,14.50
2023-05-14T10:30:06.456Z,14.40
2023-05-14T10:32:33.238Z,14.30
2023-05-14T10:34:59.983Z,14.40
2023-05-14T10:37:26.675Z,14.40
2023-05-14T10:39:56.132Z,14.50
2023-05-14T10:42:22.942Z,14.60
2023-05-14T10:44:49.706Z,14.70
2023-05-14T10:47:17.598Z,14.80
2023-05-14T10:49:44.329Z,14.80
2023-05-14T10:52:11.003Z,14.80
2023-05-14T10:54:37.713Z,14.80
2023-05-14T10:57:04.445Z,14.70
2023-05-14T10:59:31.216Z,14.70
2023-05-14T11:01:58.152Z,14.70
2023-05-14T11:04:25.164Z,14.70
2023-05-14T11:06:51.900Z,14.80
2023-05-14T11:09:18.553Z,14.90
2023-05-14T11:11:45.405Z,15.00
2023-05-14T11:14:12.114Z,15.00
2023-05-14T11:16:38.903Z,15.00
2023-05-14T11:19:05.704Z,15.10
2023-05-14T11:21:32.812Z,15.20
2023-05-14T11:23:59.677Z,15.30
2023-05-14T11:26:26.467Z,15.20
2023-05-14T11:28:53.164Z,15.40
2023-05-14T11:31:19.891Z,15.50
2023-05-14T11:33:46.593Z,15.50
2023-05-14T11:36:13.442Z,15.50
2023-05-14T11:38:40.647Z,15.50
2023-05-14T11:41:07.475Z,15.60
2023-05-14T11:43:34.149Z,15.70
2023-05-14T11:46:01.006Z,15.80
2023-05-14T11:48:27.748Z,15.90
2023-05-14T11:50:54.522Z,16.00
2023-05-14T11:53:21.193Z,16.10
2023-05-14T11:55:48.032Z,16.10
2023-05-14T11:58:15.942Z,16.20
2023-05-14T12:00:42.702Z,16.20
2023-05-14T12:03:10.200Z,16.20
2023-05-14T12:05:37.041Z,16.10
2023-05-14T12:08:03.731Z,16.20
2023-05-14T12:10:30.617Z,16.20
2023-05-14T12:12:57.354Z,16.20
2023-05-14T12:15:24.863Z,16.40
2023-05-14T12:17:54.658Z,16.40
2023-05-14T12:20:21.551Z,16.40
2023-05-14T12:22:48.429Z,16.40
2023-05-14T12:25:15.233Z,16.40
2023-05-14T12:27:41.956Z,16.50
2023-05-14T12:32:41.070Z,16.80
2023-05-14T12:35:07.988Z,16.80
2023-05-14T12:37:36.283Z,16.80
2023-05-14T12:40:02.930Z,16.80
2023-05-14T12:42:29.660Z,16.90
2023-05-14T12:44:56.322Z,16.90
2023-05-14T12:47:23.200Z,16.90
2023-05-14T12:49:49.954Z,17.00
2023-05-14T12:52:29.405Z,17.00
2023-05-14T12:55:03.262Z,17.10
2023-05-14T12:57:30.425Z,17.20
2023-05-14T12:59:57.222Z,17.30
2023-05-14T13:02:24.001Z,17.30
2023-05-14T13:04:50.830Z,17.40
2023-05-14T13:07:17.662Z,17.50
2023-05-14T13:09:44.598Z,17.50
2023-05-14T13:12:11.444Z,17.60
2023-05-14T13:14:38.296Z,17.70
2023-05-14T13:17:05.556Z,17.80
2023-05-14T13:19:33.841Z,17.90
2023-05-14T13:22:00.603Z,18.00
2023-05-14T13:24:27.308Z,18.00
2023-05-14T13:26:54.139Z,18.10
2023-05-14T13:29:21.025Z,18.20
2023-05-14T13:31:48.311Z,18.20
2023-05-14T13:34:15.093Z,18.20
2023-05-14T13:36:43.559Z,18.20
2023-05-14T13:39:12.696Z,18.30
2023-05-14T13:41:41.173Z,18.40
2023-05-14T13:44:08.209Z,18.50
2023-05-14T13:46:35.185Z,18.50
2023-05-14T13:49:02.129Z,18.50
2023-05-14T13:51:28.985Z,18.50
2023-05-14T13:53:56.135Z,18.60
2023-05-14T13:56:23.311Z,18.70
2023-05-14T13:58:50.128Z,18.80
2023-05-14T14:01:17.029Z,18.90
2023-05-14T14:03:43.753Z,19.00
2023-05-14T14:06:10.902Z,19.00
2023-05-14T14:08:37.578Z,19.00
2023-05-14T14:11:04.499Z,19.00
2023-05-14T14:13:31.216Z,19.00
2023-05-14T14:15:58.091Z,19.10
2023-05-14T14:18:24.923Z,19.20
2023-05-14T14:20:51.710Z,19.20
2023-05-14T14:23:18.498Z,19.30
2023-05-14T14:25:45.345Z,19.30
2023-05-14T14:28:12.085Z,19.40
2023-05-14T14:30:38.888Z,19.40
2023-05-14T14:33:05.675Z,19.50
2023-05-14T14:35:33.505Z,19.60
2023-05-14T14:38:00.373Z,19.70
2023-05-14T14:40:27.494Z,19.80
2023-05-14T14:42:54.252Z,19.90
2023-05-14T14:45:21.416Z,20.00
2023-05-14T14:47:48.545Z,20.10
2023-05-14T14:50:15.422Z,20.20
2023-05-14T14:52:45.782Z,20.20
2023-05-14T14:55:12.871Z,20.20
2023-05-14T14:57:39.803Z,20.10
2023-05-14T15:00:07.305Z,20.10
2023-05-14T15:02:34.747Z,20.30
2023-05-14T15:05:01.752Z,20.40
2023-05-14T15:07:32.189Z,20.50
2023-05-14T15:09:59.046Z,20.60
2023-05-14T15:12:25.901Z,20.70
2023-05-14T15:14:52.632Z,20.80
2023-05-14T15:17:19.299Z,20.80
2023-05-14T15:19:46.171Z,20.90
2023-05-14T15:22:12.911Z,21.10
2023-05-14T15:24:39.651Z,21.10
2023-05-14T15:27:06.329Z,21.10
2023-05-14T15:29:33.112Z,21.10
2023-05-14T15:31:59.878Z,21.20
2023-05-14T15:34:26.640Z,21.30
2023-05-14T15:36:53.317Z,21.40
2023-05-14T15:39:20.093Z,21.40
2023-05-14T15:41:46.807Z,21.30
2023-05-14T15:44:13.589Z,21.30
2023-05-14T15:46:40.378Z,21.40
2023-05-14T15:49:07.140Z,21.50
2023-05-14T15:51:33.912Z,21.50
2023-05-14T15:54:00.778Z,21.40
2023-05-14T15:56:27.524Z,21.40
2023-05-14T15:58:54.500Z,21.30
2023-05-14T16:01:21.219Z,21.20
2023-05-14T16:03:48.051Z,21.30
2023-05-14T16:06:14.933Z,21.30
2023-05-14T16:08:41.677Z,21.50
2023-05-14T16:11:08.631Z,21.90
2023-05-14T16:13:37.757Z,22.30
2023-05-14T16:16:04.466Z,22.50
2023-05-14T16:18:31.344Z,22.90
2023-05-14T16:20:58.178Z,23.00
2023-05-14T16:23:24.943Z,23.10
2023-05-14T16:25:51.609Z,23.10
2023-05-14T16:28:18.371Z,23.10
2023-05-14T16:30:45.053Z,23.20
2023-05-14T16:33:11.986Z,23.20
2023-05-14T16:35:39.460Z,23.10
2023-05-14T16:38:06.470Z,23.10
2023-05-14T16:40:33.181Z,23.40
2023-05-14T16:43:00.046Z,23.60
2023-05-14T16:45:27.070Z,23.80
2023-05-14T16:47:54.116Z,24.00
2023-05-14T16:50:21.091Z,24.30
2023-05-14T16:52:47.891Z,24.30
2023-05-14T16:55:14.624Z,24.30
2023-05-14T16:57:41.443Z,24.30
2023-05-14T17:00:09.621Z,24.10
2023-05-14T17:02:36.433Z,23.60
2023-05-14T17:05:04.116Z,23.10
2023-05-14T17:07:31.542Z,22.70
2023-05-14T17:09:58.676Z,22.30
2023-05-14T17:12:26.104Z,22.30
2023-05-14T17:14:52.769Z,22.30
2023-05-14T17:17:19.538Z,22.20
2023-05-14T17:19:46.383Z,22.00
2023-05-14T17:22:13.991Z,21.90
2023-05-14T17:24:40.833Z,21.80
2023-05-14T17:27:07.588Z,21.70
2023-05-14T17:29:34.393Z,21.60
2023-05-14T17:32:01.307Z,21.50
2023-05-14T17:34:28.076Z,21.40
2023-05-14T17:36:54.887Z,21.30
2023-05-14T17:39:21.579Z,21.30
2023-05-14T17:41:48.325Z,21.30
2023-05-14T17:44:15.035Z,21.20
2023-05-14T17:46:42.447Z,21.10
2023-05-14T17:49:09.280Z,21.10
2023-05-14T17:51:36.118Z,21.00
2023-05-14T17:54:02.845Z,21.00
2023-05-14T17:56:29.591Z,20.90
2023-05-14T17:58:56.363Z,20.90
2023-05-14T18:01:23.199Z,20.90
2023-05-14T18:03:50.089Z,20.80
2023-05-14T18:06:17.034Z,20.70
2023-05-14T18:08:43.806Z,20.70
2023-05-14T18:11:10.558Z,20.60
2023-05-14T18:13:37.364Z,20.50
2023-05-14T18:16:04.145Z,20.50
2023-05-14T18:18:30.923Z,20.40
2023-05-14T18:20:58.398Z,20.30
2023-05-14T18:23:25.171Z,20.30
2023-05-14T18:25:51.983Z,20.20
2023-05-14T18:28:19.034Z,20.20
2023-05-14T18:30:45.878Z,20.10
2023-05-14T18:33:12.715Z,20.10
2023-05-14T18:35:39.573Z,20.00
2023-05-14T18:38:08.065Z,19.90
2023-05-14T18:40:35.036Z,19.80
2023-05-14T18:43:01.862Z,19.80
2023-05-14T18:45:28.651Z,19.70
2023-05-14T18:47:55.395Z,19.70
2023-05-14T18:50:22.135Z,19.60
2023-05-14T18:52:48.832Z,19.50
2023-05-14T18:55:15.612Z,19.40
2023-05-14T18:57:42.371Z,19.40
2023-05-14T19:00:09.129Z,19.30
2023-05-14T19:02:36.079Z,19.20
2023-05-14T19:05:03.069Z,19.10
2023-05-14T19:07:30.493Z,19.10
2023-05-14T19:09:57.244Z,19.00
2023-05-14T19:12:23.954Z,18.90
2023-05-14T19:14:50.667Z,18.80
2023-05-14T19:17:18.618Z,18.70
2023-05-14T19:19:47.393Z,18.70
2023-05-14T19:22:14.089Z,18.70
2023-05-14T19:24:40.998Z,18.60
2023-05-14T19:27:07.713Z,18.60
2023-05-14T19:29:34.498Z,18.50
2023-05-14T19:32:01.324Z,18.40
2023-05-14T19:34:28.153Z,18.40
2023-05-14T19:36:54.885Z,18.30
2023-05-14T19:39:21.726Z,18.30
2023-05-14T19:41:48.459Z,18.20
2023-05-14T19:44:15.217Z,18.10
2023-05-14T19:46:41.921Z,18.10
2023-05-14T19:49:08.815Z,18.00
2023-05-14T19:51:35.514Z,18.00
2023-05-14T19:54:02.287Z,17.90
2023-05-14T19:56:29.189Z,17.80
2023-05-14T19:58:56.184Z,17.80
2023-05-14T20:01:23.035Z,17.70
2023-05-14T20:03:49.855Z,17.70
2023-05-14T20:06:17.509Z,17.60
2023-05-14T20:08:45.459Z,17.60
2023-05-14T20:11:12.232Z,17.50
2023-05-14T20:13:38.961Z,17.50
2023-05-14T20:16:05.875Z,17.50
2023-05-14T20:18:32.817Z,17.50
2023-05-14T20:20:59.598Z,17.40
2023-05-14T20:23:26.307Z,17.40
2023-05-14T20:25:53.230Z,17.40
2023-05-14T20:28:19.951Z,17.30
2023-05-14T20:30:46.716Z,17.30
2023-05-14T20:33:13.823Z,17.30
2023-05-14T20:35:43.725Z,17.30
2023-05-14T20:38:11.399Z,17.30
2023-05-14T20:40:38.145Z,17.30
2023-05-14T20:43:04.873Z,17.30
2023-05-14T20:45:31.686Z,17.20
2023-05-14T20:47:58.384Z,17.20
2023-05-14T20:50:27.448Z,17.20
2023-05-14T20:52:54.177Z,17.10
2023-05-14T20:55:21.773Z,17.10
2023-05-14T20:57:49.731Z,17.10
2023-05-14T21:00:16.459Z,17.10
2023-05-14T21:02:43.308Z,17.00
2023-05-14T21:05:10.139Z,17.00
2023-05-14T21:07:37.375Z,17.00
2023-05-14T21:10:04.170Z,17.00
2023-05-14T21:12:30.907Z,17.00
2023-05-14T21:14:57.595Z,17.00
2023-05-14T21:17:24.387Z,16.90
2023-05-14T21:19:51.197Z,16.90
2023-05-14T21:22:18.061Z,16.80
2023-05-14T21:24:44.913Z,16.80
2023-05-14T21:27:11.650Z,16.80
2023-05-14T21:29:39.669Z,16.80
2023-05-14T21:32:06.486Z,16.80
2023-05-14T21:34:33.460Z,16.80
2023-05-14T21:37:00.512Z,16.70
2023-05-14T21:39:27.233Z,16.70
2023-05-14T21:41:53.977Z,16.70
2023-05-14T21:44:20.676Z,16.60
2023-05-14T21:46:47.585Z,16.60
2023-05-14T21:49:14.259Z,16.60
2023-05-14T21:51:41.004Z,16.50
2023-05-14T21:54:07.680Z,16.50
2023-05-14T21:56:34.386Z,16.50
2023-05-14T21:59:01.091Z,16.50
2023-05-14T22:01:27.864Z,16.40
2023-05-14T22:03:55.803Z,16.40
2023-05-14T22:06:24.618Z,16.30
2023-05-14T22:08:51.386Z,16.30
2023-05-14T22:11:18.165Z,16.30
2023-05-14T22:13:44.839Z,16.20
2023-05-14T22:16:14.674Z,16.20
2023-05-14T22:18:41.721Z,16.20
2023-05-14T22:21:08.564Z,16.10
2023-05-14T22:23:35.380Z,16.10
2023-05-14T22:26:02.100Z,16.10
2023-05-14T22:28:28.808Z,16.00
2023-05-14T22:30:56.614Z,16.00
2023-05-14T22:33:23.518Z,16.10
2023-05-14T22:35:50.596Z,16.00
2023-05-14T22:38:17.351Z,16.10
2023-05-14T22:40:44.108Z,16.00
2023-05-14T22:43:10.935Z,16.00
2023-05-14T22:45:37.747Z,16.00
2023-05-14T22:48:04.458Z,16.00
2023-05-14T22:50:31.195Z,16.00
2023-05-14T22:52:57.912Z,16.00
2023-05-14T22:55:24.867Z,16.00
2023-05-14T22:57:51.657Z,16.00
2023-05-14T23:00:18.799Z,16.00
2023-05-14T23:02:45.750Z,16.00
2023-05-14T23:05:12.615Z,15.90
2023-05-14T23:07:39.351Z,15.90
2023-05-14T23:10:06.457Z,15.90
2023-05-14T23:12:33.195Z,15.90
2023-05-14T23:15:00.072Z,15.80
2023-05-14T23:17:26.828Z,15.80
2023-05-14T23:19:53.727Z,15.80
2023-05-14T23:22:20.807Z,15.80
2023-05-14T23:24:47.631Z,15.80
2023-05-14T23:27:14.285Z,15.80
2023-05-14T23:29:40.991Z,15.70
2023-05-14T23:32:08.374Z,15.70
2023-05-14T23:34:35.205Z,15.70
2023-05-14T23:37:01.877Z,15.60
2023-05-14T23:39:28.650Z,15.60
2023-05-14T23:41:55.393Z,15.60
2023-05-14T23:44:22.283Z,15.60
2023-05-14T23:46:51.923Z,15.60
2023-05-14T23:49:18.668Z,15.50
2023-05-14T23:51:45.605Z,15.50
2023-05-14T23:54:12.516Z,15.50
2023-05-14T23:56:39.162Z,15.50
2023-05-14T23:59:05.917Z,15.50
